createdAt,value
2023-05-07T00:05:54.468Z,7.25
2023-05-07T00:12:56.068Z,7.22
2023-05-07T00:19:57.621Z,6.00
2023-05-07T00:26:59.187Z,6.85
2023-05-07T00:34:00.737Z,7.53
2023-05-07T00:41:03.383Z,5.78
2023-05-07T00:48:04.990Z,6.82
2023-05-07T00:55:07.680Z,6.18
2023-05-07T01:02:09.248Z,7.68
2023-05-07T01:09:11.111Z,8.07
2023-05-07T01:16:12.722Z,7.00
2023-05-07T01:23:14.912Z,7.15
2023-05-07T01:30:17.433Z,6.63
2023-05-07T01:37:19.672Z,7.07
2023-05-07T01:44:21.249Z,7.18
2023-05-07T01:51:23.193Z,5.95
2023-05-07T01:58:24.784Z,7.05
2023-05-07T02:05:26.469Z,6.35
2023-05-07T02:12:34.814Z,6.45
2023-05-07T02:19:36.619Z,6.70
2023-05-07T02:26:38.839Z,5.80
2023-05-07T02:33:41.231Z,6.40
2023-05-07T02:40:44.867Z,6.47
2023-05-07T02:47:47.346Z,7.05
2023-05-07T02:54:49.441Z,6.10
2023-05-07T03:01:51.364Z,6.22
2023-05-07T03:08:53.251Z,6.80
2023-05-07T03:15:54.894Z,6.28
2023-05-07T03:22:56.499Z,6.95
2023-05-07T03:29:58.325Z,7.30
2023-05-07T03:37:01.316Z,6.07
2023-05-07T03:44:03.027Z,6.15
2023-05-07T03:51:04.906Z,4.65
2023-05-07T03:58:08.500Z,6.63
2023-05-07T04:05:10.526Z,6.13
2023-05-07T04:12:14.334Z,4.80
2023-05-07T04:19:15.919Z,5.63
2023-05-07T04:26:17.714Z,5.45
2023-05-07T04:33:20.750Z,5.90
2023-05-07T04:40:24.031Z,5.80
2023-05-07T04:47:25.783Z,5.05
2023-05-07T04:54:27.809Z,5.22
2023-05-07T05:01:29.668Z,4.55
2023-05-07T05:08:32.098Z,5.22
2023-05-07T05:15:34.523Z,4.57
2023-05-07T05:22:37.352Z,4.97
2023-05-07T05:29:39.226Z,5.28
2023-05-07T05:36:40.821Z,4.07
2023-05-07T05:43:43.000Z,5.20
2023-05-07T05:50:46.061Z,5.50
2023-05-07T05:57:49.505Z,4.60
2023-05-07T06:04:51.203Z,5.18
2023-05-07T06:11:55.363Z,5.13
2023-05-07T06:18:57.384Z,4.30
2023-05-07T06:25:59.426Z,4.35
2023-05-07T06:33:06.635Z,4.28
2023-05-07T06:40:09.097Z,4.60
2023-05-07T06:47:15.832Z,4.70
2023-05-07T06:54:19.816Z,5.00
2023-05-07T07:01:22.143Z,4.03
2023-05-07T07:08:24.615Z,4.38
2023-05-07T07:15:27.342Z,4.13
2023-05-07T07:22:30.941Z,4.00
2023-05-07T07:29:32.668Z,3.45
2023-05-07T07:36:45.105Z,3.60
2023-05-07T07:43:50.631Z,3.60
2023-05-07T07:50:55.860Z,3.40
2023-05-07T07:57:57.960Z,3.42
2023-05-07T08:04:59.996Z,3.03
2023-05-07T08:12:02.126Z,2.90
2023-05-07T08:19:06.930Z,3.45
2023-05-07T08:26:09.508Z,2.88
2023-05-07T08:33:12.267Z,2.88
2023-05-07T08:40:14.816Z,2.90
2023-05-07T08:47:17.495Z,2.83
2023-05-07T08:54:20.750Z,2.97
2023-05-07T09:01:23.347Z,2.80
2023-05-07T09:08:27.686Z,2.85
2023-05-07T09:15:31.644Z,5.85
2023-05-07T09:22:34.011Z,2.88
2023-05-07T09:29:39.792Z,3.00
2023-05-07T09:36:42.013Z,2.90
2023-05-07T09:43:44.353Z,2.67
2023-05-07T09:50:50.745Z,2.50
2023-05-07T09:57:56.485Z,2.50
2023-05-07T10:05:01.262Z,2.25
2023-05-07T10:12:06.994Z,2.30
2023-05-07T10:19:12.803Z,2.38
2023-05-07T10:26:18.469Z,2.30
2023-05-07T10:33:21.128Z,2.10
2023-05-07T10:40:22.765Z,2.45
2023-05-07T10:47:26.383Z,2.40
2023-05-07T10:54:37.410Z,2.30
2023-05-07T11:02:07.360Z,2.30
2023-05-07T11:09:53.374Z,2.13
2023-05-07T11:17:04.549Z,2.08
2023-05-07T11:24:13.815Z,2.30
2023-05-07T11:31:26.872Z,2.20
2023-05-07T11:38:29.457Z,2.28
2023-05-07T11:45:31.098Z,2.40
2023-05-07T11:52:33.104Z,2.20
2023-05-07T11:59:45.226Z,2.22
2023-05-07T12:06:46.770Z,2.17
2023-05-07T12:13:48.404Z,2.15
2023-05-07T12:20:51.176Z,2.08
2023-05-07T12:27:53.618Z,2.03
2023-05-07T12:34:55.209Z,1.92
2023-05-07T12:42:00.262Z,2.88
2023-05-07T12:49:02.014Z,1.67
2023-05-07T12:56:03.771Z,2.35
2023-05-07T13:03:05.698Z,1.90
2023-05-07T13:10:07.922Z,1.70
2023-05-07T13:17:09.450Z,2.10
2023-05-07T13:24:11.016Z,1.90
2023-05-07T13:31:12.647Z,2.13
2023-05-07T13:38:14.235Z,2.20
2023-05-07T13:45:16.131Z,1.80
2023-05-07T13:52:17.936Z,2.53
2023-05-07T13:59:19.531Z,2.25
2023-05-07T14:06:21.316Z,2.10
2023-05-07T14:13:24.076Z,2.08
2023-05-07T14:20:26.198Z,1.95
2023-05-07T14:27:27.771Z,2.05
2023-05-07T14:34:29.383Z,2.15
2023-05-07T14:41:32.146Z,2.20
2023-05-07T14:48:33.691Z,2.10
2023-05-07T14:55:35.869Z,2.10
2023-05-07T15:02:37.566Z,2.30
2023-05-07T15:09:39.273Z,1.73
2023-05-07T15:16:41.122Z,2.00
2023-05-07T15:23:42.705Z,2.17
2023-05-07T15:30:44.255Z,1.90
2023-05-07T15:37:45.844Z,2.03
2023-05-07T15:44:47.469Z,2.17
2023-05-07T15:51:49.094Z,2.15
2023-05-07T15:58:50.657Z,2.10
2023-05-07T16:05:52.243Z,2.10
2023-05-07T16:12:54.171Z,2.10
2023-05-07T16:19:55.717Z,2.00
2023-05-07T16:26:57.255Z,2.00
2023-05-07T16:33:59.700Z,1.98
2023-05-07T16:41:01.615Z,2.78
2023-05-07T16:48:04.055Z,2.50
2023-05-07T16:55:06.134Z,2.10
2023-05-07T17:02:07.750Z,2.03
2023-05-07T17:09:09.404Z,2.20
2023-05-07T17:16:11.002Z,2.17
2023-05-07T17:23:13.295Z,2.08
2023-05-07T17:30:15.739Z,2.00
2023-05-07T17:37:17.460Z,1.95
2023-05-07T17:44:19.080Z,2.72
2023-05-07T17:51:20.724Z,1.90
2023-05-07T17:58:24.490Z,1.95
2023-05-07T18:05:26.816Z,2.72
2023-05-07T18:12:28.449Z,2.00
2023-05-07T18:19:29.984Z,2.17
2023-05-07T18:26:31.590Z,3.50
2023-05-07T18:33:33.243Z,2.45
2023-05-07T18:40:34.793Z,2.38
2023-05-07T18:47:36.413Z,2.15
2023-05-07T18:54:37.971Z,1.90
2023-05-07T19:01:39.616Z,2.30
2023-05-07T19:08:41.223Z,2.40
2023-05-07T19:15:42.809Z,2.33
2023-05-07T19:22:44.355Z,2.30
2023-05-07T19:29:45.952Z,2.00
2023-05-07T19:36:47.509Z,2.10
2023-05-07T19:43:49.020Z,2.40
2023-05-07T19:50:51.318Z,3.10
2023-05-07T19:57:52.839Z,2.72
2023-05-07T20:04:55.125Z,2.63
2023-05-07T20:11:57.031Z,2.30
2023-05-07T20:18:58.552Z,2.25
2023-05-07T20:26:00.107Z,2.70
2023-05-07T20:33:03.900Z,2.80
2023-05-07T20:40:07.131Z,3.25
2023-05-07T20:47:08.800Z,2.78
2023-05-07T20:54:10.912Z,3.10
2023-05-07T21:01:12.491Z,2.88
2023-05-07T21:08:14.030Z,3.08
2023-05-07T21:15:15.704Z,2.80
2023-05-07T21:22:17.247Z,2.67
2023-05-07T21:29:19.642Z,3.20
2023-05-07T21:36:21.170Z,3.20
2023-05-07T21:43:22.716Z,3.85
2023-05-07T21:50:24.257Z,3.10
2023-05-07T21:57:26.216Z,3.45
2023-05-07T22:04:27.759Z,3.58
2023-05-07T22:11:29.306Z,3.45
2023-05-07T22:18:30.868Z,2.95
2023-05-07T22:25:34.498Z,3.72
2023-05-07T22:32:36.298Z,3.10
2023-05-07T22:39:37.866Z,3.80
2023-05-07T22:46:39.539Z,3.45
2023-05-07T22:53:41.211Z,3.35
2023-05-07T23:00:42.823Z,3.58
2023-05-07T23:07:46.966Z,3.53
2023-05-07T23:14:48.866Z,3.45
2023-05-07T23:21:50.500Z,3.42
2023-05-07T23:28:52.027Z,3.33
2023-05-07T23:36:00.635Z,4.05
2023-05-07T23:43:03.019Z,3.90
2023-05-07T23:50:05.206Z,3.15
2023-05-07T23:57:11.570Z,3.80
